METAR LSZS 021120Z 23012KT CAVOK 21/09 Q1026 RMK N TL170=